This is the latest recevied weather packets stored in our database for station/object SP3WRO-13. If no packets are shown the sender has not sent any weather packets the latest 1 day(s).
| Time | Temp. | Humidity | Pressure | Rain* | Wind** | Luminosity | Snow |
|---|---|---|---|---|---|---|---|
| 1778092209 | 10° C | 89% | 1003.9 hPa | - | - | 1 W/m² | - |
| 1778091309 | 10° C | 89% | 1003.7 hPa | - | - | 6 W/m² | - |
| 1778090409 | 10° C | 90% | 1003.8 hPa | - | - | 7 W/m² | - |
| 1778089509 | 10.56° C | 89% | 1003.3 hPa | - | - | 13 W/m² | - |
| 1778088609 | 10.56° C | 89% | 1003.5 hPa | - | - | 23 W/m² | - |
| 1778087709 | 10.56° C | 90% | 1003.4 hPa | - | - | 24 W/m² | - |
| 1778067904 | 12.78° C | 94% | 1001.5 hPa | - | - | 94 W/m² | - |
| 1778067004 | 12.78° C | 91% | 1001.4 hPa | - | - | 92 W/m² | - |
| 1778066104 | 13.33° C | 86% | 1001.3 hPa | - | - | 114 W/m² | - |
| 1778065204 | 13.33° C | 86% | 1001.4 hPa | - | - | 198 W/m² | - |
| 1778050803 | 10° C | 93% | 1001.6 hPa | - | - | 70 W/m² | - |
| 1778049903 | 10° C | 94% | 1001.7 hPa | - | - | 51 W/m² | - |
| 1778049003 | 10° C | 93% | 1001.5 hPa | - | - | 47 W/m² | - |
| 1778041800 | 9.44° C | 93% | 1001.8 hPa | - | - | 13 W/m² | - |
| 1778039100 | 9.44° C | 94% | 1002 hPa | - | - | 3 W/m² | - |
| 1778038200 | 9.44° C | 94% | 1002.2 hPa | - | - | 1 W/m² | - |
| 1778035498 | 10° C | 95% | 1002.6 hPa | - | - | - | - |
| 1778034598 | 10° C | 95% | 1002.8 hPa | - | - | - | - |
| 1778033698 | 10° C | 95% | 1002.8 hPa | - | - | - | - |
| 1778032798 | 10° C | 95% | 1003.4 hPa | - | - | - | - |
| 1778031898 | 10° C | 95% | 1003.7 hPa | - | - | - | - |
| 1778030998 | 10° C | 95% | 1003.9 hPa | - | - | - | - |
| 1778030098 | 10° C | 95% | 1003.3 hPa | - | - | - | - |
| 1778029198 | 10° C | 95% | 1003.4 hPa | - | - | - | - |
* Rain since midnight (hover to see other rain measurements)
** Current wind speed in m/s (hover to see current wind gust speed)